Terminal Aerodrome Forecast
Issued by NWS Wilmington, OH

Current Version | Previous Version | Graphics & Text | Print | Product List | Glossary On
Versions: 1 2 3 4 5 6 7 8 9 10 11 12 13 14 15 16 17 18 19 20 21 22 23 24 25
070
FTUS41 KILN 220903 AAA
TAFCVG
TAF AMD
KCVG 220903Z 2209/2312 18007KT P6SM SCT250
     FM221400 17010KT P6SM FEW120 BKN250
     FM230000 15005KT P6SM BKN130
     FM230900 16007KT P6SM -SHRA OVC050=

USA.gov is the U.S. government's official web portal to all federal, state and local government web resources and services.